Home   Weather   Germany   Forchheim   Past weeks
Flag for Germany

Past Weather in Forchheim, Bavaria, Germany — Yesterday and Last 2 Weeks

Currently: 77 °F. Passing clouds. (Weather station: Nuernberg, Germany). See more current weather

Past Weather in Forchheim — Graph

°F

Forchheim Temperature Yesterday

Maximum temperature yesterday: 79 °F (at 4:20 pm)
Minimum temperature yesterday: 61 °F (at 1:50 am)
Average temperature yesterday: 68 °F

High & Low Weather Summary for the Past Weeks

 TemperatureHumidityPressure
High82 °F (Jul 24, 2:50 pm)100% (Jul 14, 3:20 am)30.21 "Hg (Jul 14, 3:20 am)
Low50 °F (Jul 21, 5:50 am)36% (Jul 21, 6:50 pm)29.74 "Hg (Jul 13, 6:20 am)
Average67 °F74%30.00 "Hg
* Reported Jul 12 6:20 pm — Jul 27 6:50 pm, Forchheim. Weather by CustomWeather, © 2021

Note: Actual official high and low records may vary slightly from our data, if they occured in-between our weather recording intervals... More about our weather records

Forchheim Weather History for the Previous 24 Hours

Scroll right to see more
 ConditionsComfort  
Time TempWeatherWind HumidityBarometerVisibility
6:50 pm
Tue, Jul 27
77 °FPassing clouds.7 mph51%29.92 "HgN/A
6:20 pm77 °FPassing clouds.6 mph47%29.92 "HgN/A
5:50 pm77 °FSunny.8 mph47%29.92 "Hg10 mi
5:20 pm79 °FPassing clouds.6 mph45%29.92 "HgN/A
4:50 pm79 °FPassing clouds.8 mph45%29.95 "HgN/A
4:20 pm79 °FSunny.5 mph48%29.95 "Hg10 mi
3:50 pm77 °FPassing clouds.3 mph51%29.95 "HgN/A
3:20 pm79 °FPassing clouds.7 mph45%29.95 "HgN/A
2:50 pm79 °FScattered clouds.2 mph48%29.98 "HgN/A
2:20 pm77 °FScattered clouds.3 mph51%29.98 "HgN/A
1:50 pm77 °FScattered clouds.5 mph47%29.98 "HgN/A
1:20 pm77 °FScattered clouds.6 mph51%29.98 "HgN/A
12:50 pm75 °FScattered clouds.7 mph54%30.01 "HgN/A
12:20 pm73 °FScattered clouds.7 mph61%30.01 "HgN/A
11:50 am75 °FScattered clouds.7 mph57%30.01 "HgN/A
11:20 am73 °FPassing clouds.6 mph61%30.01 "HgN/A
10:50 am73 °FPassing clouds.3 mph65%30.01 "HgN/A
10:20 am72 °FPassing clouds.5 mph65%30.01 "HgN/A
9:50 am72 °FPassing clouds.2 mph65%30.01 "HgN/A
9:20 am70 °FPassing clouds.5 mph69%30.01 "HgN/A
7:50 am64 °FPassing clouds.6 mph83%30.01 "HgN/A
7:20 am63 °FPassing clouds.5 mph88%30.01 "HgN/A
6:50 am59 °FPassing clouds.5 mph94%30.01 "HgN/A
6:20 am57 °FSunny.6 mph94%29.98 "Hg10 mi
5:50 am57 °FSunny.5 mph100%29.98 "Hg10 mi
5:20 am57 °FClear.3 mph100%29.98 "Hg10 mi
4:50 am59 °FClear.3 mph94%29.98 "Hg10 mi
4:20 am57 °FClear.6 mph100%29.98 "Hg10 mi
3:50 am59 °FClear.7 mph94%29.98 "Hg10 mi
3:20 am59 °FClear.8 mph94%29.98 "Hg10 mi
2:50 am59 °FClear.6 mph94%29.98 "Hg10 mi
2:20 am61 °FClear.5 mph88%29.98 "Hg10 mi
1:50 am61 °FClear.3 mph94%29.98 "Hg10 mi
1:20 am61 °FClear.6 mph94%29.98 "Hg10 mi
12:50 am63 °FPassing clouds.3 mph88%29.98 "HgN/A
12:20 am64 °FPassing clouds.3 mph88%29.98 "HgN/A
11:50 pm
Mon, Jul 26
64 °FPassing clouds.6 mph88%29.98 "HgN/A
11:20 pm64 °FPassing clouds.5 mph88%29.98 "HgN/A
10:50 pm66 °FPassing clouds.5 mph83%29.98 "HgN/A
10:20 pm68 °FPassing clouds.7 mph83%29.95 "HgN/A
9:50 pm68 °FPassing clouds.7 mph78%29.95 "HgN/A
9:20 pm70 °FPassing clouds.6 mph78%29.95 "HgN/A
8:50 pm70 °FPassing clouds.5 mph78%29.92 "HgN/A
8:20 pm72 °FPassing clouds.6 mph78%29.92 "HgN/A
Weather by CustomWeather, © 2021

See weather overview